sensor_id;sensor_type;location;lat;lon;timestamp;pressure;altitude;pressure_sealevel;temperature;humidity
75401;BME280;63974;47.538;18.972;2023-05-07T00:03:00;100194.56;;;13.77;69.99
75401;BME280;63974;47.538;18.972;2023-05-07T00:06:04;100195.16;;;13.72;70.04
75401;BME280;63974;47.538;18.972;2023-05-07T00:09:22;100197.88;;;13.64;70.27
75401;BME280;63974;47.538;18.972;2023-05-07T00:12:25;100197.28;;;13.62;70.32
75401;BME280;63974;47.538;18.972;2023-05-07T00:15:28;100193.25;;;13.60;70.67
75401;BME280;63974;47.538;18.972;2023-05-07T00:18:31;100194.19;;;13.52;70.87
75401;BME280;63974;47.538;18.972;2023-05-07T00:21:34;100200.66;;;13.56;70.60
75401;BME280;63974;47.538;18.972;2023-05-07T00:24:37;100194.25;;;13.59;70.50
75401;BME280;63974;47.538;18.972;2023-05-07T00:27:39;100198.56;;;13.45;70.87
75401;BME280;63974;47.538;18.972;2023-05-07T00:30:42;100198.75;;;13.44;70.89
75401;BME280;63974;47.538;18.972;2023-05-07T00:33:45;100194.97;;;13.46;70.77
75401;BME280;63974;47.538;18.972;2023-05-07T00:36:49;100199.31;;;13.39;70.97
75401;BME280;63974;47.538;18.972;2023-05-07T00:39:51;100199.13;;;13.41;70.98
75401;BME280;63974;47.538;18.972;2023-05-07T00:42:54;100193.91;;;13.41;70.80
75401;BME280;63974;47.538;18.972;2023-05-07T00:46:01;100196.69;;;13.39;70.72
75401;BME280;63974;47.538;18.972;2023-05-07T00:49:04;100200.31;;;13.38;70.67
75401;BME280;63974;47.538;18.972;2023-05-07T00:52:09;100199.88;;;13.35;70.65
75401;BME280;63974;47.538;18.972;2023-05-07T00:55:13;100196.03;;;13.31;70.66
75401;BME280;63974;47.538;18.972;2023-05-07T00:58:17;100195.59;;;13.28;70.74
75401;BME280;63974;47.538;18.972;2023-05-07T01:01:19;100196.94;;;13.17;70.92
75401;BME280;63974;47.538;18.972;2023-05-07T01:04:22;100212.78;;;13.01;71.55
75401;BME280;63974;47.538;18.972;2023-05-07T01:07:26;100204.66;;;12.90;71.97
75401;BME280;63974;47.538;18.972;2023-05-07T01:10:29;100206.19;;;12.99;71.50
75401;BME280;63974;47.538;18.972;2023-05-07T01:13:34;100215.91;;;13.11;71.06
75401;BME280;63974;47.538;18.972;2023-05-07T01:16:38;100221.00;;;13.19;70.91
75401;BME280;63974;47.538;18.972;2023-05-07T01:19:41;100217.03;;;13.23;70.92
75401;BME280;63974;47.538;18.972;2023-05-07T01:22:44;100222.44;;;13.22;70.86
75401;BME280;63974;47.538;18.972;2023-05-07T01:25:52;100207.59;;;13.22;71.07
75401;BME280;63974;47.538;18.972;2023-05-07T01:28:57;100210.81;;;13.24;70.97
75401;BME280;63974;47.538;18.972;2023-05-07T01:32:01;100203.00;;;13.24;70.50
75401;BME280;63974;47.538;18.972;2023-05-07T01:35:07;100200.94;;;13.20;70.82
75401;BME280;63974;47.538;18.972;2023-05-07T01:38:12;100199.16;;;13.20;70.90
75401;BME280;63974;47.538;18.972;2023-05-07T01:41:15;100205.38;;;13.19;71.08
75401;BME280;63974;47.538;18.972;2023-05-07T01:44:19;100202.47;;;13.08;71.14
75401;BME280;63974;47.538;18.972;2023-05-07T01:47:22;100199.53;;;13.17;70.88
75401;BME280;63974;47.538;18.972;2023-05-07T01:50:25;100199.03;;;13.28;70.65
75401;BME280;63974;47.538;18.972;2023-05-07T01:53:35;100200.03;;;13.27;71.47
75401;BME280;63974;47.538;18.972;2023-05-07T01:56:39;100195.00;;;13.26;71.20
75401;BME280;63974;47.538;18.972;2023-05-07T01:59:42;100192.16;;;13.21;71.32
75401;BME280;63974;47.538;18.972;2023-05-07T02:02:44;100182.28;;;13.16;71.32
75401;BME280;63974;47.538;18.972;2023-05-07T02:06:05;100194.38;;;13.03;71.56
75401;BME280;63974;47.538;18.972;2023-05-07T02:09:13;100186.41;;;12.90;71.93
75401;BME280;63974;47.538;18.972;2023-05-07T02:12:21;100196.94;;;12.82;71.81
75401;BME280;63974;47.538;18.972;2023-05-07T02:15:25;100192.50;;;12.61;72.31
75401;BME280;63974;47.538;18.972;2023-05-07T02:18:28;100193.81;;;12.51;72.79
75401;BME280;63974;47.538;18.972;2023-05-07T02:21:32;100193.19;;;12.49;72.78
75401;BME280;63974;47.538;18.972;2023-05-07T02:24:34;100187.16;;;12.48;73.13
75401;BME280;63974;47.538;18.972;2023-05-07T02:27:37;100185.00;;;12.52;73.14
75401;BME280;63974;47.538;18.972;2023-05-07T02:30:40;100184.09;;;12.59;73.08
75401;BME280;63974;47.538;18.972;2023-05-07T02:33:44;100185.00;;;12.52;73.11
75401;BME280;63974;47.538;18.972;2023-05-07T02:36:48;100188.53;;;12.30;73.71
75401;BME280;63974;47.538;18.972;2023-05-07T02:39:55;100185.31;;;12.28;74.11
75401;BME280;63974;47.538;18.972;2023-05-07T02:42:58;100192.44;;;12.19;74.47
75401;BME280;63974;47.538;18.972;2023-05-07T02:46:05;100189.03;;;12.04;75.23
75401;BME280;63974;47.538;18.972;2023-05-07T02:49:12;100193.34;;;11.97;75.60
75401;BME280;63974;47.538;18.972;2023-05-07T02:52:15;100191.00;;;11.88;76.45
75401;BME280;63974;47.538;18.972;2023-05-07T02:55:18;100191.19;;;11.86;76.46
75401;BME280;63974;47.538;18.972;2023-05-07T02:58:21;100192.44;;;12.05;76.37
75401;BME280;63974;47.538;18.972;2023-05-07T03:01:24;100195.47;;;12.23;75.64
75401;BME280;63974;47.538;18.972;2023-05-07T03:04:35;100198.66;;;12.39;75.18
75401;BME280;63974;47.538;18.972;2023-05-07T03:07:38;100197.59;;;12.34;74.49
75401;BME280;63974;47.538;18.972;2023-05-07T03:10:41;100203.25;;;12.37;74.40
75401;BME280;63974;47.538;18.972;2023-05-07T03:13:44;100201.91;;;12.41;74.36
75401;BME280;63974;47.538;18.972;2023-05-07T03:16:48;100201.78;;;12.49;74.00
75401;BME280;63974;47.538;18.972;2023-05-07T03:19:51;100201.78;;;12.64;73.87
75401;BME280;63974;47.538;18.972;2023-05-07T03:22:54;100201.97;;;12.83;73.30
75401;BME280;63974;47.538;18.972;2023-05-07T03:25:57;100197.09;;;12.95;73.04
75401;BME280;63974;47.538;18.972;2023-05-07T03:29:01;100200.53;;;12.95;72.57
75401;BME280;63974;47.538;18.972;2023-05-07T03:32:04;100197.06;;;12.74;73.02
75401;BME280;63974;47.538;18.972;2023-05-07T03:35:08;100205.75;;;12.81;72.84
75401;BME280;63974;47.538;18.972;2023-05-07T03:38:11;100208.00;;;12.84;72.78
75401;BME280;63974;47.538;18.972;2023-05-07T03:41:14;100218.59;;;12.47;74.19
75401;BME280;63974;47.538;18.972;2023-05-07T03:44:19;100225.38;;;12.27;74.98
75401;BME280;63974;47.538;18.972;2023-05-07T03:47:24;100226.69;;;12.52;74.08
75401;BME280;63974;47.538;18.972;2023-05-07T03:50:27;100225.31;;;12.56;74.13
75401;BME280;63974;47.538;18.972;2023-05-07T03:53:31;100212.56;;;12.82;73.26
75401;BME280;63974;47.538;18.972;2023-05-07T03:56:34;100219.38;;;12.97;73.01
75401;BME280;63974;47.538;18.972;2023-05-07T03:59:36;100224.66;;;13.04;72.76
75401;BME280;63974;47.538;18.972;2023-05-07T04:02:41;100219.50;;;13.10;72.75
75401;BME280;63974;47.538;18.972;2023-05-07T04:05:44;100232.66;;;13.23;72.65
75401;BME280;63974;47.538;18.972;2023-05-07T04:08:48;100233.03;;;13.20;72.27
75401;BME280;63974;47.538;18.972;2023-05-07T04:11:51;100238.88;;;13.22;72.53
75401;BME280;63974;47.538;18.972;2023-05-07T04:14:54;100241.66;;;13.41;71.99
75401;BME280;63974;47.538;18.972;2023-05-07T04:17:58;100238.53;;;13.52;71.93
75401;BME280;63974;47.538;18.972;2023-05-07T04:21:01;100245.41;;;13.60;72.41
75401;BME280;63974;47.538;18.972;2023-05-07T04:24:05;100242.06;;;13.66;72.53
75401;BME280;63974;47.538;18.972;2023-05-07T04:27:08;100245.47;;;13.66;72.39
75401;BME280;63974;47.538;18.972;2023-05-07T04:30:12;100241.56;;;13.77;71.96
75401;BME280;63974;47.538;18.972;2023-05-07T04:33:16;100253.94;;;13.68;72.65
75401;BME280;63974;47.538;18.972;2023-05-07T04:36:21;100258.78;;;13.71;72.61
75401;BME280;63974;47.538;18.972;2023-05-07T04:39:33;100254.59;;;13.77;72.57
75401;BME280;63974;47.538;18.972;2023-05-07T04:42:38;100256.25;;;13.84;72.38
75401;BME280;63974;47.538;18.972;2023-05-07T04:45:42;100262.91;;;13.87;72.92
75401;BME280;63974;47.538;18.972;2023-05-07T04:48:45;100260.66;;;13.56;73.25
75401;BME280;63974;47.538;18.972;2023-05-07T04:51:48;100261.66;;;13.83;72.36
75401;BME280;63974;47.538;18.972;2023-05-07T04:54:55;100261.22;;;14.07;72.94
75401;BME280;63974;47.538;18.972;2023-05-07T04:57:58;100274.59;;;14.18;72.37
75401;BME280;63974;47.538;18.972;2023-05-07T05:01:05;100269.63;;;14.02;72.48
75401;BME280;63974;47.538;18.972;2023-05-07T05:04:09;100276.94;;;13.86;73.27
75401;BME280;63974;47.538;18.972;2023-05-07T05:07:13;100268.88;;;14.08;72.32
75401;BME280;63974;47.538;18.972;2023-05-07T05:10:16;100266.00;;;14.31;71.92
75401;BME280;63974;47.538;18.972;2023-05-07T05:13:19;100264.13;;;14.59;71.14
75401;BME280;63974;47.538;18.972;2023-05-07T05:16:24;100269.63;;;14.70;71.46
75401;BME280;63974;47.538;18.972;2023-05-07T05:19:28;100276.69;;;14.36;72.36
75401;BME280;63974;47.538;18.972;2023-05-07T05:22:32;100291.53;;;14.08;73.79
75401;BME280;63974;47.538;18.972;2023-05-07T05:25:36;100282.88;;;14.01;75.10
75401;BME280;63974;47.538;18.972;2023-05-07T05:28:40;100289.91;;;14.28;74.11
75401;BME280;63974;47.538;18.972;2023-05-07T05:31:43;100290.75;;;14.41;73.87
75401;BME280;63974;47.538;18.972;2023-05-07T05:34:46;100296.28;;;14.53;73.55
75401;BME280;63974;47.538;18.972;2023-05-07T05:37:49;100303.03;;;14.81;72.45
75401;BME280;63974;47.538;18.972;2023-05-07T05:40:53;100295.69;;;15.11;70.74
75401;BME280;63974;47.538;18.972;2023-05-07T05:43:58;100301.22;;;15.48;69.26
75401;BME280;63974;47.538;18.972;2023-05-07T05:47:01;100298.81;;;15.66;68.55
75401;BME280;63974;47.538;18.972;2023-05-07T05:50:06;100294.56;;;16.04;66.87
75401;BME280;63974;47.538;18.972;2023-05-07T05:53:09;100296.72;;;16.33;67.13
75401;BME280;63974;47.538;18.972;2023-05-07T05:56:12;100294.06;;;16.59;66.79
75401;BME280;63974;47.538;18.972;2023-05-07T05:59:16;100288.13;;;16.76;66.86
75401;BME280;63974;47.538;18.972;2023-05-07T06:02:19;100297.84;;;17.13;66.61
75401;BME280;63974;47.538;18.972;2023-05-07T06:05:23;100302.03;;;16.83;66.84
75401;BME280;63974;47.538;18.972;2023-05-07T06:08:29;100304.63;;;16.20;69.19
75401;BME280;63974;47.538;18.972;2023-05-07T06:11:33;100300.22;;;16.77;67.85
75401;BME280;63974;47.538;18.972;2023-05-07T06:14:36;100304.34;;;17.11;67.58
75401;BME280;63974;47.538;18.972;2023-05-07T06:17:39;100308.28;;;16.89;68.94
75401;BME280;63974;47.538;18.972;2023-05-07T06:20:45;100305.66;;;16.89;69.65
75401;BME280;63974;47.538;18.972;2023-05-07T06:23:56;100300.94;;;17.04;69.14
75401;BME280;63974;47.538;18.972;2023-05-07T06:26:58;100286.91;;;17.23;68.15
75401;BME280;63974;47.538;18.972;2023-05-07T06:30:03;100291.31;;;17.60;67.41
75401;BME280;63974;47.538;18.972;2023-05-07T06:33:07;100294.59;;;17.55;66.93
75401;BME280;63974;47.538;18.972;2023-05-07T06:36:10;100298.28;;;17.72;66.56
75401;BME280;63974;47.538;18.972;2023-05-07T06:39:14;100307.53;;;17.50;67.30
75401;BME280;63974;47.538;18.972;2023-05-07T06:42:18;100301.66;;;17.79;67.22
75401;BME280;63974;47.538;18.972;2023-05-07T06:45:23;100293.94;;;18.08;66.86
75401;BME280;63974;47.538;18.972;2023-05-07T06:48:29;100290.09;;;18.29;65.67
75401;BME280;63974;47.538;18.972;2023-05-07T06:51:37;100299.03;;;18.64;63.48
75401;BME280;63974;47.538;18.972;2023-05-07T06:54:41;100295.28;;;18.53;62.64
75401;BME280;63974;47.538;18.972;2023-05-07T06:57:48;100295.03;;;18.73;62.67
75401;BME280;63974;47.538;18.972;2023-05-07T07:00:53;100302.19;;;18.84;63.46
75401;BME280;63974;47.538;18.972;2023-05-07T07:03:56;100286.16;;;19.03;62.31
75401;BME280;63974;47.538;18.972;2023-05-07T07:06:59;100282.19;;;19.12;62.53
75401;BME280;63974;47.538;18.972;2023-05-07T07:10:04;100308.25;;;19.32;61.22
75401;BME280;63974;47.538;18.972;2023-05-07T07:13:07;100299.84;;;19.41;60.25
75401;BME280;63974;47.538;18.972;2023-05-07T07:16:11;100298.13;;;19.47;60.43
75401;BME280;63974;47.538;18.972;2023-05-07T07:19:14;100299.53;;;19.61;60.07
75401;BME280;63974;47.538;18.972;2023-05-07T07:22:18;100297.47;;;19.74;59.73
75401;BME280;63974;47.538;18.972;2023-05-07T07:25:22;100287.09;;;20.02;58.90
75401;BME280;63974;47.538;18.972;2023-05-07T07:28:26;100288.00;;;20.19;58.14
75401;BME280;63974;47.538;18.972;2023-05-07T07:31:29;100291.63;;;20.52;57.79
75401;BME280;63974;47.538;18.972;2023-05-07T07:34:33;100293.69;;;20.50;57.15
75401;BME280;63974;47.538;18.972;2023-05-07T07:37:36;100285.75;;;21.01;53.95
75401;BME280;63974;47.538;18.972;2023-05-07T07:40:40;100285.63;;;21.08;51.64
75401;BME280;63974;47.538;18.972;2023-05-07T07:43:43;100288.03;;;21.09;50.85
75401;BME280;63974;47.538;18.972;2023-05-07T07:46:46;100295.00;;;20.87;51.70
75401;BME280;63974;47.538;18.972;2023-05-07T07:49:49;100290.13;;;21.07;51.37
75401;BME280;63974;47.538;18.972;2023-05-07T07:52:53;100296.66;;;21.05;50.42
75401;BME280;63974;47.538;18.972;2023-05-07T07:55:56;100293.81;;;20.95;51.08
75401;BME280;63974;47.538;18.972;2023-05-07T07:59:04;100299.19;;;21.28;50.77
75401;BME280;63974;47.538;18.972;2023-05-07T08:02:09;100300.97;;;21.39;48.57
75401;BME280;63974;47.538;18.972;2023-05-07T08:05:12;100297.34;;;21.12;49.46
75401;BME280;63974;47.538;18.972;2023-05-07T08:08:15;100305.06;;;20.40;51.25
75401;BME280;63974;47.538;18.972;2023-05-07T08:11:19;100297.75;;;20.92;50.00
75401;BME280;63974;47.538;18.972;2023-05-07T08:14:22;100305.34;;;20.89;49.76
75401;BME280;63974;47.538;18.972;2023-05-07T08:17:26;100311.38;;;20.39;51.74
75401;BME280;63974;47.538;18.972;2023-05-07T08:20:31;100317.91;;;20.13;53.06
75401;BME280;63974;47.538;18.972;2023-05-07T08:23:35;100316.50;;;19.99;53.58
75401;BME280;63974;47.538;18.972;2023-05-07T08:26:39;100303.69;;;20.37;52.18
75401;BME280;63974;47.538;18.972;2023-05-07T08:29:44;100312.50;;;20.42;52.18
75401;BME280;63974;47.538;18.972;2023-05-07T08:32:51;100308.56;;;20.68;51.84
75401;BME280;63974;47.538;18.972;2023-05-07T08:35:54;100311.91;;;20.75;51.71
75401;BME280;63974;47.538;18.972;2023-05-07T08:38:59;100303.44;;;21.29;51.16
75401;BME280;63974;47.538;18.972;2023-05-07T08:42:03;100304.28;;;21.62;50.44
75401;BME280;63974;47.538;18.972;2023-05-07T08:45:09;100308.50;;;22.29;48.09
75401;BME280;63974;47.538;18.972;2023-05-07T08:48:17;100309.50;;;22.83;48.59
75401;BME280;63974;47.538;18.972;2023-05-07T08:51:29;100313.59;;;22.95;48.08
75401;BME280;63974;47.538;18.972;2023-05-07T08:54:33;100318.63;;;23.18;46.59
75401;BME280;63974;47.538;18.972;2023-05-07T08:57:36;100323.44;;;23.21;47.63
75401;BME280;63974;47.538;18.972;2023-05-07T09:00:43;100316.97;;;23.96;45.54
75401;BME280;63974;47.538;18.972;2023-05-07T09:03:47;100319.19;;;24.09;45.32
75401;BME280;63974;47.538;18.972;2023-05-07T09:06:51;100323.09;;;25.00;42.74
75401;BME280;63974;47.538;18.972;2023-05-07T09:09:56;100334.66;;;22.85;47.73
75401;BME280;63974;47.538;18.972;2023-05-07T09:13:00;100341.47;;;21.72;50.95
75401;BME280;63974;47.538;18.972;2023-05-07T09:16:11;100339.72;;;21.33;52.78
75401;BME280;63974;47.538;18.972;2023-05-07T09:19:25;100350.09;;;21.23;53.49
75401;BME280;63974;47.538;18.972;2023-05-07T09:22:36;100338.28;;;21.87;52.76
75401;BME280;63974;47.538;18.972;2023-05-07T09:25:42;100333.06;;;21.75;53.22
75401;BME280;63974;47.538;18.972;2023-05-07T09:28:53;100328.44;;;21.99;51.25
75401;BME280;63974;47.538;18.972;2023-05-07T09:31:56;100331.22;;;21.92;52.77
75401;BME280;63974;47.538;18.972;2023-05-07T09:34:59;100328.41;;;21.66;54.27
75401;BME280;63974;47.538;18.972;2023-05-07T09:38:03;100318.41;;;22.01;54.28
75401;BME280;63974;47.538;18.972;2023-05-07T09:41:12;100312.19;;;22.28;54.24
75401;BME280;63974;47.538;18.972;2023-05-07T09:44:27;100311.25;;;22.56;54.17
75401;BME280;63974;47.538;18.972;2023-05-07T09:47:32;100308.66;;;22.82;54.49
75401;BME280;63974;47.538;18.972;2023-05-07T09:50:37;100302.78;;;23.01;56.09
75401;BME280;63974;47.538;18.972;2023-05-07T09:53:43;100302.94;;;22.90;54.86
75401;BME280;63974;47.538;18.972;2023-05-07T09:56:48;100300.38;;;22.52;52.62
75401;BME280;63974;47.538;18.972;2023-05-07T09:59:54;100308.94;;;22.05;54.24
75401;BME280;63974;47.538;18.972;2023-05-07T10:03:01;100309.91;;;21.66;56.41
75401;BME280;63974;47.538;18.972;2023-05-07T10:06:14;100308.97;;;21.44;56.47
75401;BME280;63974;47.538;18.972;2023-05-07T10:09:18;100315.22;;;21.38;60.37
75401;BME280;63974;47.538;18.972;2023-05-07T10:12:21;100301.94;;;21.49;57.66
75401;BME280;63974;47.538;18.972;2023-05-07T10:15:26;100306.72;;;21.80;56.61
75401;BME280;63974;47.538;18.972;2023-05-07T10:18:33;100308.38;;;23.00;54.46
75401;BME280;63974;47.538;18.972;2023-05-07T10:21:50;100298.00;;;23.20;49.81
75401;BME280;63974;47.538;18.972;2023-05-07T10:24:59;100301.03;;;23.33;52.55
75401;BME280;63974;47.538;18.972;2023-05-07T10:28:06;100302.09;;;23.32;50.76
75401;BME280;63974;47.538;18.972;2023-05-07T10:31:43;100290.69;;;23.32;49.46
75401;BME280;63974;47.538;18.972;2023-05-07T10:34:54;100296.22;;;23.57;49.87
75401;BME280;63974;47.538;18.972;2023-05-07T10:37:58;100292.69;;;23.83;48.69
75401;BME280;63974;47.538;18.972;2023-05-07T10:41:05;100293.91;;;23.97;50.39
75401;BME280;63974;47.538;18.972;2023-05-07T10:44:25;100287.03;;;24.01;49.38
75401;BME280;63974;47.538;18.972;2023-05-07T10:47:29;100286.94;;;23.91;48.85
75401;BME280;63974;47.538;18.972;2023-05-07T10:50:36;100286.50;;;24.04;48.13
75401;BME280;63974;47.538;18.972;2023-05-07T10:53:40;100286.38;;;23.84;46.84
75401;BME280;63974;47.538;18.972;2023-05-07T10:56:50;100277.25;;;24.11;48.71
75401;BME280;63974;47.538;18.972;2023-05-07T10:59:58;100277.91;;;24.28;47.35
75401;BME280;63974;47.538;18.972;2023-05-07T11:03:06;100274.16;;;24.91;45.74
75401;BME280;63974;47.538;18.972;2023-05-07T11:06:32;100274.75;;;25.13;45.69
75401;BME280;63974;47.538;18.972;2023-05-07T11:13:02;100268.44;;;25.58;43.54
75401;BME280;63974;47.538;18.972;2023-05-07T11:19:50;100266.31;;;25.50;43.63
75401;BME280;63974;47.538;18.972;2023-05-07T11:26:55;100255.91;;;25.69;42.22
75401;BME280;63974;47.538;18.972;2023-05-07T11:29:59;100259.94;;;25.37;44.74
75401;BME280;63974;47.538;18.972;2023-05-07T11:33:05;100266.31;;;25.31;44.23
75401;BME280;63974;47.538;18.972;2023-05-07T11:36:08;100262.72;;;26.40;40.69
75401;BME280;63974;47.538;18.972;2023-05-07T11:39:25;100260.25;;;26.58;39.88
75401;BME280;63974;47.538;18.972;2023-05-07T11:42:30;100263.59;;;26.84;41.22
75401;BME280;63974;47.538;18.972;2023-05-07T11:45:33;100269.34;;;26.52;40.81
75401;BME280;63974;47.538;18.972;2023-05-07T11:48:38;100266.50;;;26.24;40.11
75401;BME280;63974;47.538;18.972;2023-05-07T11:51:41;100269.72;;;26.06;40.43
75401;BME280;63974;47.538;18.972;2023-05-07T11:54:54;100258.81;;;26.17;41.45
75401;BME280;63974;47.538;18.972;2023-05-07T11:57:57;100263.09;;;26.03;42.27
75401;BME280;63974;47.538;18.972;2023-05-07T12:01:00;100269.69;;;26.21;40.51
75401;BME280;63974;47.538;18.972;2023-05-07T12:04:04;100268.44;;;26.03;41.31
75401;BME280;63974;47.538;18.972;2023-05-07T12:07:14;100263.53;;;24.81;44.18
75401;BME280;63974;47.538;18.972;2023-05-07T12:10:17;100262.56;;;25.76;42.96
75401;BME280;63974;47.538;18.972;2023-05-07T12:13:25;100265.50;;;26.73;40.65
75401;BME280;63974;47.538;18.972;2023-05-07T12:16:28;100265.25;;;26.70;39.71
75401;BME280;63974;47.538;18.972;2023-05-07T12:19:33;100260.81;;;26.45;38.83
75401;BME280;63974;47.538;18.972;2023-05-07T12:22:36;100256.00;;;26.47;40.42
75401;BME280;63974;47.538;18.972;2023-05-07T12:25:40;100260.78;;;26.65;38.34
75401;BME280;63974;47.538;18.972;2023-05-07T12:28:49;100262.13;;;27.06;37.72
75401;BME280;63974;47.538;18.972;2023-05-07T12:31:51;100251.16;;;26.69;38.30
75401;BME280;63974;47.538;18.972;2023-05-07T12:34:55;100248.16;;;26.17;40.11
75401;BME280;63974;47.538;18.972;2023-05-07T12:37:59;100256.72;;;25.64;41.77
75401;BME280;63974;47.538;18.972;2023-05-07T12:41:08;100253.81;;;25.31;41.67
75401;BME280;63974;47.538;18.972;2023-05-07T12:44:11;100253.59;;;24.51;43.08
75401;BME280;63974;47.538;18.972;2023-05-07T12:47:14;100261.53;;;23.63;42.64
75401;BME280;63974;47.538;18.972;2023-05-07T12:50:17;100263.81;;;23.18;44.24
75401;BME280;63974;47.538;18.972;2023-05-07T12:53:22;100253.84;;;23.30;43.22
75401;BME280;63974;47.538;18.972;2023-05-07T12:56:25;100238.94;;;23.24;44.28
75401;BME280;63974;47.538;18.972;2023-05-07T12:59:36;100262.94;;;22.65;49.04
75401;BME280;63974;47.538;18.972;2023-05-07T13:02:40;100271.50;;;22.13;53.33
75401;BME280;63974;47.538;18.972;2023-05-07T13:05:43;100288.97;;;20.64;69.37
75401;BME280;63974;47.538;18.972;2023-05-07T13:08:46;100278.63;;;20.74;71.10
75401;BME280;63974;47.538;18.972;2023-05-07T13:11:49;100273.91;;;20.76;65.75
75401;BME280;63974;47.538;18.972;2023-05-07T13:14:52;100267.38;;;21.06;67.19
75401;BME280;63974;47.538;18.972;2023-05-07T13:17:55;100263.53;;;20.97;62.25
75401;BME280;63974;47.538;18.972;2023-05-07T13:20:59;100244.78;;;21.76;64.51
75401;BME280;63974;47.538;18.972;2023-05-07T13:24:02;100248.06;;;21.83;64.18
75401;BME280;63974;47.538;18.972;2023-05-07T13:27:05;100250.16;;;22.19;65.44
75401;BME280;63974;47.538;18.972;2023-05-07T13:30:08;100250.34;;;22.98;61.87
75401;BME280;63974;47.538;18.972;2023-05-07T13:33:11;100235.97;;;24.30;56.60
75401;BME280;63974;47.538;18.972;2023-05-07T13:36:14;100238.13;;;25.35;57.26
75401;BME280;63974;47.538;18.972;2023-05-07T13:39:17;100242.09;;;25.67;53.88
75401;BME280;63974;47.538;18.972;2023-05-07T13:42:20;100236.81;;;25.52;53.94
75401;BME280;63974;47.538;18.972;2023-05-07T13:45:23;100232.47;;;24.91;56.64
75401;BME280;63974;47.538;18.972;2023-05-07T13:48:28;100234.75;;;24.01;59.40
75401;BME280;63974;47.538;18.972;2023-05-07T13:51:32;100242.69;;;23.60;58.68
75401;BME280;63974;47.538;18.972;2023-05-07T13:54:35;100237.88;;;23.57;57.20
75401;BME280;63974;47.538;18.972;2023-05-07T13:57:38;100233.41;;;23.62;58.04
75401;BME280;63974;47.538;18.972;2023-05-07T14:00:43;100231.50;;;23.53;59.19
75401;BME280;63974;47.538;18.972;2023-05-07T14:03:46;100235.91;;;21.82;57.17
75401;BME280;63974;47.538;18.972;2023-05-07T14:06:49;100239.50;;;21.60;57.56
75401;BME280;63974;47.538;18.972;2023-05-07T14:09:54;100246.31;;;21.72;56.95
75401;BME280;63974;47.538;18.972;2023-05-07T14:12:58;100241.88;;;21.28;59.41
75401;BME280;63974;47.538;18.972;2023-05-07T14:16:00;100241.34;;;20.98;57.80
75401;BME280;63974;47.538;18.972;2023-05-07T14:19:03;100243.34;;;20.80;58.95
75401;BME280;63974;47.538;18.972;2023-05-07T14:22:06;100242.91;;;21.27;60.13
75401;BME280;63974;47.538;18.972;2023-05-07T14:25:09;100237.97;;;21.31;59.31
75401;BME280;63974;47.538;18.972;2023-05-07T14:28:12;100240.69;;;21.19;58.75
75401;BME280;63974;47.538;18.972;2023-05-07T14:31:15;100243.88;;;21.21;57.70
75401;BME280;63974;47.538;18.972;2023-05-07T14:34:18;100232.31;;;21.72;57.09
75401;BME280;63974;47.538;18.972;2023-05-07T14:37:21;100230.22;;;22.12;55.54
75401;BME280;63974;47.538;18.972;2023-05-07T14:40:24;100227.81;;;22.32;56.25
75401;BME280;63974;47.538;18.972;2023-05-07T14:43:27;100234.75;;;22.33;53.40
75401;BME280;63974;47.538;18.972;2023-05-07T14:46:29;100230.94;;;22.45;52.04
75401;BME280;63974;47.538;18.972;2023-05-07T14:49:33;100243.13;;;22.46;52.57
75401;BME280;63974;47.538;18.972;2023-05-07T14:52:36;100240.94;;;22.22;54.98
75401;BME280;63974;47.538;18.972;2023-05-07T14:55:39;100234.06;;;22.21;55.10
75401;BME280;63974;47.538;18.972;2023-05-07T14:58:43;100233.25;;;22.85;54.09
75401;BME280;63974;47.538;18.972;2023-05-07T15:01:47;100226.78;;;23.28;52.15
75401;BME280;63974;47.538;18.972;2023-05-07T15:04:50;100210.09;;;23.64;50.82
75401;BME280;63974;47.538;18.972;2023-05-07T15:07:53;100216.53;;;24.76;47.65
75401;BME280;63974;47.538;18.972;2023-05-07T15:10:59;100222.38;;;24.78;45.96
75401;BME280;63974;47.538;18.972;2023-05-07T15:14:02;100221.91;;;25.36;48.16
75401;BME280;63974;47.538;18.972;2023-05-07T15:17:04;100217.38;;;25.61;45.74
75401;BME280;63974;47.538;18.972;2023-05-07T15:20:07;100205.63;;;25.97;43.15
75401;BME280;63974;47.538;18.972;2023-05-07T15:23:10;100210.63;;;26.14;42.89
75401;BME280;63974;47.538;18.972;2023-05-07T15:26:20;100221.88;;;25.71;43.10
75401;BME280;63974;47.538;18.972;2023-05-07T15:29:23;100223.13;;;26.13;44.66
75401;BME280;63974;47.538;18.972;2023-05-07T15:32:27;100219.13;;;24.61;44.56
75401;BME280;63974;47.538;18.972;2023-05-07T15:35:30;100212.63;;;24.27;47.36
75401;BME280;63974;47.538;18.972;2023-05-07T15:38:34;100201.09;;;24.73;46.59
75401;BME280;63974;47.538;18.972;2023-05-07T15:41:36;100204.91;;;25.32;47.46
75401;BME280;63974;47.538;18.972;2023-05-07T15:44:39;100208.63;;;25.61;47.57
75401;BME280;63974;47.538;18.972;2023-05-07T15:47:42;100205.91;;;24.15;49.05
75401;BME280;63974;47.538;18.972;2023-05-07T15:50:45;100210.38;;;24.61;50.16
75401;BME280;63974;47.538;18.972;2023-05-07T15:53:49;100203.38;;;24.45;50.84
75401;BME280;63974;47.538;18.972;2023-05-07T15:56:53;100212.66;;;24.47;50.33
75401;BME280;63974;47.538;18.972;2023-05-07T15:59:56;100210.66;;;24.08;50.11
75401;BME280;63974;47.538;18.972;2023-05-07T16:02:59;100206.78;;;24.30;50.17
75401;BME280;63974;47.538;18.972;2023-05-07T16:06:02;100203.19;;;24.00;48.41